Time;durP1;ratioP1;P1;durP2;ratioP2;P2;SDS_P1;SDS_P2;PMS_P1;PMS_P2;Temp;Humidity;BMP_temperature;BMP_pressure;BME280_temperature;BME280_humidity;BME280_pressure;Samples;Min_cycle;Max_cycle;Signal;HPM_P1;HPM_P2
2021/12/10 00:00:03;;;;;;;54.63;29.05;;;4.80;99.90;;;;;;5000120;28;20092;-40
2021/12/10 00:02:34;;;;;;;54.70;27.75;;;4.80;99.90;;;;;;5017727;28;20133;-38
2021/12/10 00:05:01;;;;;;;56.85;27.92;;;4.80;99.90;;;;;;5003908;28;20042;-40
2021/12/10 00:07:28;;;;;;;54.17;27.13;;;4.80;99.90;;;;;;5012238;28;20503;-38
2021/12/10 00:09:58;;;;;;;47.83;26.73;;;4.90;99.90;;;;;;5015161;28;20060;-38
2021/12/10 00:12:26;;;;;;;52.83;27.50;;;4.90;99.90;;;;;;4997864;28;20060;-38
2021/12/10 00:14:55;;;;;;;49.85;26.58;;;4.90;99.90;;;;;;5015476;28;20491;-38
2021/12/10 00:17:23;;;;;;;54.10;26.10;;;4.90;99.90;;;;;;4999965;28;20065;-39
2021/12/10 00:19:55;;;;;;;56.03;26.95;;;4.90;99.90;;;;;;5007151;28;20149;-38
2021/12/10 00:22:24;;;;;;;56.92;27.55;;;4.90;99.90;;;;;;4999636;28;20053;-39
2021/12/10 00:24:52;;;;;;;46.25;25.27;;;4.90;99.90;;;;;;5003150;28;20050;-38
2021/12/10 00:27:27;;;;;;;54.92;27.85;;;4.90;99.90;;;;;;4996711;28;20049;-38
2021/12/10 00:30:02;;;;;;;55.85;26.25;;;4.90;99.90;;;;;;5020291;28;20069;-37
2021/12/10 00:32:34;;;;;;;49.80;24.98;;;4.90;99.90;;;;;;5017231;28;20065;-38
2021/12/10 00:35:03;;;;;;;50.05;26.60;;;4.90;99.90;;;;;;4997759;28;20104;-37
2021/12/10 00:37:29;;;;;;;54.03;25.95;;;4.90;99.90;;;;;;4995243;28;20053;-37
2021/12/10 00:39:58;;;;;;;53.10;26.33;;;4.90;99.90;;;;;;4997339;28;20132;-38
2021/12/10 00:42:27;;;;;;;55.78;27.05;;;4.90;99.90;;;;;;5023235;28;20466;-38
2021/12/10 00:44:56;;;;;;;65.18;26.27;;;4.90;99.90;;;;;;5016693;28;20046;-37
2021/12/10 00:47:23;;;;;;;49.15;24.92;;;4.90;99.90;;;;;;5000154;28;20097;-38
2021/12/10 00:49:51;;;;;;;47.25;23.83;;;4.90;99.90;;;;;;4990064;28;20115;-37
2021/12/10 00:52:18;;;;;;;41.17;22.33;;;4.90;99.90;;;;;;5014861;28;20141;-37
2021/12/10 00:54:45;;;;;;;38.42;21.90;;;4.90;99.90;;;;;;5014676;28;20085;-38
2021/12/10 00:57:13;;;;;;;47.53;23.17;;;4.90;99.90;;;;;;5014440;28;20061;-37
2021/12/10 00:59:40;;;;;;;40.83;22.67;;;4.90;99.90;;;;;;4987426;28;20538;-38
2021/12/10 01:02:11;;;;;;;46.92;21.60;;;4.90;99.90;;;;;;5014638;28;20425;-38
2021/12/10 01:04:40;;;;;;;37.55;21.02;;;4.90;99.90;;;;;;4995654;28;20048;-38
2021/12/10 01:07:09;;;;;;;39.45;20.38;;;4.90;99.90;;;;;;5014744;28;20053;-38
2021/12/10 01:09:38;;;;;;;45.72;20.73;;;4.90;99.90;;;;;;4998755;28;20417;-37
2021/12/10 01:12:07;;;;;;;40.15;19.65;;;4.90;99.90;;;;;;5019594;28;20088;-37
2021/12/10 01:14:51;;;;;;;40.30;21.30;;;4.90;99.90;;;;;;5002553;28;20474;-37
2021/12/10 01:25:39;;;;;;;34.95;17.42;;;4.80;99.90;;;;;;4996798;28;20323;-38
2021/12/10 01:28:07;;;;;;;41.97;18.58;;;4.80;99.90;;;;;;5010631;28;20426;-37
2021/12/10 01:30:35;;;;;;;31.70;18.13;;;4.80;99.90;;;;;;5003049;28;20054;-38
2021/12/10 01:33:06;;;;;;;36.63;18.05;;;4.80;99.90;;;;;;5009616;28;20085;-38
2021/12/10 01:35:38;;;;;;;33.75;17.17;;;4.80;99.90;;;;;;5014054;28;20053;-38
2021/12/10 01:38:05;;;;;;;38.05;16.83;;;4.80;99.90;;;;;;4996442;28;20131;-38
2021/12/10 01:40:34;;;;;;;31.05;15.13;;;4.80;99.90;;;;;;5013659;28;20049;-38
2021/12/10 01:43:06;;;;;;;36.75;15.32;;;4.80;99.90;;;;;;4996965;28;20065;-38
2021/12/10 01:45:34;;;;;;;;;;;4.70;99.90;;;;;;5013081;28;20096;-38
2021/12/10 01:48:02;;;;;;;37.75;15.23;;;4.70;99.90;;;;;;4988170;28;19925;-37
2021/12/10 01:50:34;;;;;;;37.38;16.08;;;4.70;99.90;;;;;;5013774;28;20477;-37
2021/12/10 01:53:04;;;;;;;34.13;16.25;;;4.70;99.90;;;;;;5012261;28;20065;-38
2021/12/10 01:55:32;;;;;;;28.55;15.07;;;4.70;99.90;;;;;;5012026;28;20050;-38
2021/12/10 01:57:59;;;;;;;29.73;15.43;;;4.70;99.90;;;;;;5024537;28;20131;-38
2021/12/10 02:00:28;;;;;;;31.67;15.27;;;4.70;99.90;;;;;;4996057;28;20505;-38
2021/12/10 02:02:55;;;;;;;34.90;16.48;;;4.70;99.90;;;;;;5012133;28;20053;-38
2021/12/10 02:05:22;;;;;;;35.13;17.42;;;4.70;99.90;;;;;;4996047;28;20089;-38
2021/12/10 02:07:51;;;;;;;27.77;15.05;;;4.70;99.90;;;;;;5006467;28;20081;-38
2021/12/10 02:10:20;;;;;;;39.15;17.30;;;4.70;99.90;;;;;;5002878;28;20054;-39
2021/12/10 02:12:47;;;;;;;37.30;18.58;;;4.60;99.90;;;;;;4998120;28;20501;-37
2021/12/10 02:15:14;;;;;;;37.40;18.02;;;4.70;99.90;;;;;;4996387;28;20133;-38
2021/12/10 02:17:43;;;;;;;33.90;18.60;;;4.70;99.90;;;;;;5015552;28;20057;-42
2021/12/10 02:20:12;;;;;;;36.25;18.13;;;4.70;99.90;;;;;;5028458;28;20128;-38
2021/12/10 02:22:43;;;;;;;37.08;18.15;;;4.60;99.90;;;;;;4990689;28;20054;-38
2021/12/10 02:25:12;;;;;;;49.08;19.63;;;4.60;99.90;;;;;;5006439;28;20454;-39
2021/12/10 02:27:39;;;;;;;49.22;19.08;;;4.60;99.90;;;;;;5013292;28;20486;-39
2021/12/10 02:30:08;;;;;;;36.78;18.30;;;4.60;99.90;;;;;;5013356;28;20054;-38
2021/12/10 02:32:35;;;;;;;39.58;18.52;;;4.70;99.90;;;;;;5013175;28;20140;-41
2021/12/10 02:35:02;;;;;;;30.33;17.73;;;4.60;99.90;;;;;;4996379;28;20154;-40
2021/12/10 02:37:29;;;;;;;39.03;17.60;;;4.60;99.90;;;;;;5012449;28;20050;-38
2021/12/10 02:39:58;;;;;;;33.60;17.52;;;4.60;99.90;;;;;;5012840;28;20053;-39
2021/12/10 02:42:25;;;;;;;34.20;17.27;;;4.60;99.90;;;;;;5012544;28;20046;-38
2021/12/10 02:44:53;;;;;;;35.83;16.60;;;4.60;99.90;;;;;;4995533;28;20065;-38
2021/12/10 02:47:20;;;;;;;38.13;16.13;;;4.60;99.90;;;;;;4993498;28;20108;-38
2021/12/10 02:49:47;;;;;;;31.55;15.77;;;4.60;99.90;;;;;;5012314;28;20177;-38
2021/12/10 02:52:15;;;;;;;29.85;13.52;;;4.60;99.90;;;;;;5011331;28;20057;-39
2021/12/10 02:54:44;;;;;;;35.38;16.02;;;4.60;99.90;;;;;;4988060;28;20052;-40
2021/12/10 02:57:13;;;;;;;35.70;16.15;;;4.60;99.90;;;;;;5009133;28;20108;-38
2021/12/10 02:59:40;;;;;;;28.35;16.35;;;4.60;99.90;;;;;;4995332;28;20042;-38
2021/12/10 03:02:08;;;;;;;28.48;15.82;;;4.60;99.90;;;;;;4995484;28;20088;-38
2021/12/10 03:04:35;;;;;;;36.53;16.77;;;4.60;99.90;;;;;;5011454;28;20081;-39
2021/12/10 03:07:07;;;;;;;36.63;17.85;;;4.60;99.90;;;;;;4994083;28;21648;-38
2021/12/10 03:09:34;;;;;;;26.88;14.68;;;4.60;99.90;;;;;;4996605;28;20060;-39
2021/12/10 03:12:01;;;;;;;34.20;16.98;;;4.60;99.90;;;;;;4990431;28;20144;-38
2021/12/10 03:14:32;;;;;;;30.27;16.92;;;4.50;99.90;;;;;;4995486;28;20054;-38
2021/12/10 03:17:00;;;;;;;30.42;16.45;;;4.50;99.90;;;;;;4995279;28;20057;-38
2021/12/10 03:19:27;;;;;;;31.02;15.70;;;4.50;99.90;;;;;;5012516;28;20155;-38
2021/12/10 03:21:54;;;;;;;35.63;16.30;;;4.50;99.90;;;;;;5018115;28;20046;-39
2021/12/10 03:24:26;;;;;;;41.17;18.00;;;4.50;99.90;;;;;;4994816;28;20061;-37
2021/12/10 03:26:54;;;;;;;34.63;18.35;;;4.50;99.90;;;;;;4994254;28;20052;-37
2021/12/10 03:29:21;;;;;;;37.25;19.23;;;4.40;99.90;;;;;;4995021;28;20088;-37
2021/12/10 03:31:50;;;;;;;39.13;20.60;;;4.50;99.90;;;;;;5012388;28;20042;-37
2021/12/10 03:34:17;;;;;;;30.27;17.30;;;4.50;99.90;;;;;;5012486;28;20046;-36
2021/12/10 03:36:46;;;;;;;35.22;18.73;;;4.40;99.90;;;;;;4979464;28;20089;-37
2021/12/10 03:39:13;;;;;;;31.98;18.60;;;4.40;99.90;;;;;;4994721;28;20058;-38
2021/12/10 03:41:41;;;;;;;29.73;16.42;;;4.40;99.90;;;;;;5012079;28;20046;-36
2021/12/10 03:44:08;;;;;;;33.97;16.50;;;4.40;99.90;;;;;;4995724;28;20054;-37
2021/12/10 03:46:35;;;;;;;27.20;14.40;;;4.40;99.90;;;;;;4992171;28;20085;-37
2021/12/10 03:49:03;;;;;;;28.77;15.30;;;4.30;99.90;;;;;;4984270;28;20119;-37
2021/12/10 03:51:31;;;;;;;34.08;16.55;;;4.30;99.90;;;;;;5010306;28;20431;-37
2021/12/10 03:53:58;;;;;;;25.98;16.23;;;4.30;99.90;;;;;;5012131;28;20104;-37
2021/12/10 03:56:26;;;;;;;28.20;16.10;;;4.30;99.90;;;;;;5007645;28;20478;-36
2021/12/10 03:58:54;;;;;;;29.55;16.48;;;4.30;99.90;;;;;;4999275;28;20458;-38
2021/12/10 04:01:22;;;;;;;29.58;17.08;;;4.20;99.90;;;;;;5013721;28;20077;-36
2021/12/10 04:03:49;;;;;;;27.30;17.35;;;4.30;99.90;;;;;;5012142;28;20050;-38
2021/12/10 04:06:18;;;;;;;29.05;17.13;;;4.20;99.90;;;;;;4994305;28;20061;-36
2021/12/10 04:08:45;;;;;;;31.45;17.38;;;4.20;99.90;;;;;;5012391;28;20137;-38
2021/12/10 04:11:15;;;;;;;29.52;17.73;;;4.20;99.90;;;;;;4994367;28;20060;-38
2021/12/10 04:13:43;;;;;;;36.25;18.67;;;4.10;99.90;;;;;;4988985;28;20065;-37
2021/12/10 04:16:10;;;;;;;33.20;18.60;;;4.10;99.90;;;;;;5011938;28;20120;-36
2021/12/10 04:18:37;;;;;;;33.42;18.42;;;4.10;99.90;;;;;;4985211;28;20089;-37
2021/12/10 04:21:05;;;;;;;35.63;18.88;;;4.10;99.90;;;;;;4991455;28;20061;-36
2021/12/10 04:23:36;;;;;;;35.00;19.20;;;4.00;99.90;;;;;;5015417;28;20081;-36
2021/12/10 04:26:03;;;;;;;39.97;20.30;;;3.90;99.90;;;;;;4997244;28;20058;-37
2021/12/10 04:28:31;;;;;;;40.83;20.35;;;3.90;99.90;;;;;;4976585;28;20046;-36
2021/12/10 04:30:58;;;;;;;37.65;20.75;;;3.90;99.90;;;;;;5015645;28;20057;-36
2021/12/10 04:33:26;;;;;;;36.50;20.67;;;3.80;99.90;;;;;;4996999;28;20057;-36
2021/12/10 04:35:55;;;;;;;37.90;20.38;;;3.80;99.90;;;;;;5018523;28;20132;-37
2021/12/10 04:38:23;;;;;;;39.10;21.38;;;3.80;99.90;;;;;;5019300;28;20307;-37
2021/12/10 04:40:51;;;;;;;42.60;20.92;;;3.70;99.90;;;;;;4997224;28;20092;-37
2021/12/10 04:43:19;;;;;;;34.58;20.20;;;3.70;99.90;;;;;;5013263;28;20492;-40
2021/12/10 04:45:46;;;;;;;36.22;19.90;;;3.70;99.90;;;;;;5017852;28;20052;-37
2021/12/10 04:48:13;;;;;;;36.50;20.63;;;3.60;99.90;;;;;;5034347;28;20115;-37
2021/12/10 04:50:40;;;;;;;37.28;19.80;;;3.60;99.90;;;;;;5023557;28;20064;-37
2021/12/10 04:53:07;;;;;;;40.35;21.00;;;3.60;99.90;;;;;;5014326;28;20081;-36
2021/12/10 04:55:34;;;;;;;39.88;19.58;;;3.50;99.90;;;;;;5011481;28;20457;-37
2021/12/10 04:58:03;;;;;;;40.92;20.10;;;3.50;99.90;;;;;;5015128;28;20057;-36
2021/12/10 05:00:32;;;;;;;35.65;19.92;;;3.50;99.90;;;;;;5012924;28;20073;-37
2021/12/10 05:03:00;;;;;;;37.25;20.05;;;3.40;99.90;;;;;;5007180;28;20046;-36
2021/12/10 05:05:27;;;;;;;38.17;20.60;;;3.40;99.90;;;;;;4997308;28;20050;-37
2021/12/10 05:07:54;;;;;;;41.30;20.05;;;3.40;99.90;;;;;;4995966;28;20489;-37
2021/12/10 05:10:21;;;;;;;36.80;19.92;;;3.40;99.90;;;;;;4996759;28;20117;-37
2021/12/10 05:12:48;;;;;;;37.58;20.60;;;3.30;99.90;;;;;;4997823;28;20061;-37
2021/12/10 05:15:18;;;;;;;37.08;21.20;;;3.30;99.90;;;;;;4996909;28;20082;-37
2021/12/10 05:17:45;;;;;;;34.20;21.35;;;3.30;99.90;;;;;;4996606;28;20057;-37
2021/12/10 05:20:14;;;;;;;39.40;21.17;;;3.30;99.90;;;;;;4999167;28;20054;-37
2021/12/10 05:22:41;;;;;;;34.63;19.92;;;3.30;99.90;;;;;;5014261;28;20494;-37
2021/12/10 05:25:09;;;;;;;38.40;20.80;;;3.20;99.90;;;;;;4996141;28;20131;-39
2021/12/10 05:27:36;;;;;;;35.42;21.23;;;3.20;99.90;;;;;;4996721;28;20108;-36
2021/12/10 05:30:04;;;;;;;35.63;20.95;;;3.20;99.90;;;;;;4995851;28;20046;-37
2021/12/10 05:32:32;;;;;;;39.58;22.48;;;3.10;99.90;;;;;;5008037;28;20050;-37
2021/12/10 05:35:00;;;;;;;44.20;22.40;;;3.10;99.90;;;;;;5012471;28;20104;-37
2021/12/10 05:37:27;;;;;;;38.95;21.63;;;3.10;99.90;;;;;;5012469;28;20073;-37
2021/12/10 05:39:54;;;;;;;37.53;21.83;;;3.00;99.90;;;;;;4990249;28;20471;-43
2021/12/10 05:42:21;;;;;;;34.28;21.45;;;3.00;99.90;;;;;;4996052;28;20092;-37
2021/12/10 05:44:48;;;;;;;36.25;20.98;;;3.10;99.90;;;;;;4997465;28;20452;-36
2021/12/10 05:47:15;;;;;;;34.75;21.38;;;3.00;99.90;;;;;;4996487;28;20084;-36
2021/12/10 05:49:43;;;;;;;34.20;21.45;;;3.00;99.90;;;;;;4995817;28;20085;-40
2021/12/10 05:52:11;;;;;;;30.38;20.15;;;3.00;99.90;;;;;;5014405;28;20137;-36
2021/12/10 05:54:38;;;;;;;35.88;21.90;;;2.90;99.90;;;;;;4995059;28;20177;-37
2021/12/10 05:57:05;;;;;;;38.80;21.80;;;2.90;99.90;;;;;;5012536;28;20575;-37
2021/12/10 05:59:32;;;;;;;30.95;19.17;;;2.90;99.90;;;;;;4996082;28;20596;-37
2021/12/10 06:01:59;;;;;;;30.90;18.73;;;2.80;99.90;;;;;;4995460;28;20054;-36
2021/12/10 06:04:27;;;;;;;31.13;19.10;;;2.80;99.90;;;;;;4995952;28;20054;-37
2021/12/10 06:06:56;;;;;;;29.25;18.63;;;2.70;99.90;;;;;;4995318;28;20050;-37
2021/12/10 06:09:23;;;;;;;28.52;18.73;;;2.80;99.90;;;;;;5010217;28;20060;-36
2021/12/10 06:11:50;;;;;;;30.88;18.95;;;2.70;99.90;;;;;;5014518;28;20052;-36
2021/12/10 06:14:17;;;;;;;29.38;18.92;;;2.70;99.90;;;;;;5012414;28;20049;-38
2021/12/10 06:16:44;;;;;;;27.35;18.00;;;2.70;99.90;;;;;;5010786;28;20048;-37
2021/12/10 06:19:11;;;;;;;31.35;17.50;;;2.60;99.90;;;;;;5007092;28;20482;-37
2021/12/10 06:21:38;;;;;;;28.23;17.17;;;2.60;99.90;;;;;;5010473;28;20140;-38
2021/12/10 06:24:07;;;;;;;29.83;18.73;;;2.50;99.90;;;;;;5011408;28;20326;-36
2021/12/10 06:26:34;;;;;;;28.13;17.63;;;2.60;99.90;;;;;;5010844;28;20050;-37
2021/12/10 06:29:01;;;;;;;29.70;17.67;;;2.50;99.90;;;;;;4995217;28;20067;-37
2021/12/10 06:31:29;;;;;;;29.65;17.25;;;2.50;99.90;;;;;;4995869;28;20137;-38
2021/12/10 06:33:57;;;;;;;26.10;17.88;;;2.50;99.90;;;;;;4988871;28;20073;-38
2021/12/10 06:36:24;;;;;;;22.55;15.95;;;2.40;99.90;;;;;;5011502;28;20155;-37
2021/12/10 06:38:51;;;;;;;26.55;16.58;;;2.40;99.90;;;;;;4995617;28;20121;-36
2021/12/10 06:41:19;;;;;;;25.80;15.38;;;2.40;99.90;;;;;;5009083;28;20073;-37
2021/12/10 06:43:46;;;;;;;26.92;16.98;;;2.40;99.90;;;;;;5010228;28;20048;-37
2021/12/10 06:46:13;;;;;;;26.50;16.25;;;2.40;99.90;;;;;;4994138;28;20088;-37
2021/12/10 06:48:40;;;;;;;28.17;16.45;;;2.30;99.90;;;;;;4996880;28;20140;-36
2021/12/10 06:51:09;;;;;;;29.00;16.33;;;2.30;99.90;;;;;;5010277;28;20064;-39
2021/12/10 06:53:36;;;;;;;26.42;16.20;;;2.30;99.90;;;;;;5011115;28;20053;-36
2021/12/10 06:56:04;;;;;;;26.38;16.05;;;2.30;99.90;;;;;;5011113;28;20579;-36
2021/12/10 06:58:34;;;;;;;27.95;15.65;;;2.30;99.90;;;;;;5012397;28;20120;-38
2021/12/10 07:01:05;;;;;;;31.88;15.43;;;2.30;99.90;;;;;;5011234;28;20046;-36
2021/12/10 07:03:32;;;;;;;22.30;14.93;;;2.30;99.90;;;;;;4983994;28;20086;-37
2021/12/10 07:06:00;;;;;;;27.40;14.60;;;2.30;99.90;;;;;;4985472;28;20176;-36
2021/12/10 07:08:27;;;;;;;32.70;16.23;;;2.20;99.90;;;;;;4985045;28;20411;-40
2021/12/10 07:10:55;;;;;;;26.90;15.25;;;2.20;99.90;;;;;;4988463;28;20111;-38
2021/12/10 07:13:22;;;;;;;28.08;16.88;;;2.20;99.90;;;;;;4990873;28;20509;-39
2021/12/10 07:15:50;;;;;;;25.88;14.88;;;2.20;99.90;;;;;;5004288;28;20053;-36
2021/12/10 07:18:19;;;;;;;24.90;14.75;;;2.10;99.90;;;;;;5010390;28;20061;-37
2021/12/10 07:20:46;;;;;;;26.70;15.00;;;2.10;99.90;;;;;;5012252;28;20120;-39
2021/12/10 07:23:13;;;;;;;25.98;15.48;;;2.10;99.90;;;;;;4992908;28;20127;-38
2021/12/10 07:25:40;;;;;;;25.42;14.73;;;2.10;99.90;;;;;;4991508;28;20127;-37
2021/12/10 07:28:07;;;;;;;23.45;15.07;;;2.10;99.90;;;;;;4993996;28;20054;-37
2021/12/10 07:30:34;;;;;;;23.05;13.85;;;2.00;99.90;;;;;;4993667;28;20125;-39
2021/12/10 07:33:02;;;;;;;28.00;15.43;;;2.00;99.90;;;;;;4994105;28;20073;-37
2021/12/10 07:35:29;;;;;;;22.83;13.40;;;2.00;99.90;;;;;;4992651;28;20077;-37
2021/12/10 07:37:56;;;;;;;26.67;14.27;;;2.00;99.90;;;;;;5010896;28;20405;-37
2021/12/10 07:40:24;;;;;;;23.75;14.18;;;2.00;99.90;;;;;;5010106;28;20081;-37
2021/12/10 07:42:51;;;;;;;22.27;13.38;;;2.00;99.90;;;;;;4993698;28;20057;-38
2021/12/10 07:45:18;;;;;;;22.38;14.23;;;2.00;99.90;;;;;;5008909;28;20056;-37
2021/12/10 07:47:48;;;;;;;21.58;13.55;;;1.90;99.90;;;;;;5008820;28;20096;-36
2021/12/10 07:50:17;;;;;;;23.50;14.77;;;1.90;99.90;;;;;;5010126;28;20050;-37
2021/12/10 07:52:45;;;;;;;25.10;14.32;;;1.90;99.90;;;;;;5010378;28;20046;-39
2021/12/10 07:55:14;;;;;;;23.73;13.18;;;1.90;99.90;;;;;;5011227;28;20050;-37
2021/12/10 07:57:42;;;;;;;23.80;14.02;;;1.90;99.90;;;;;;5013812;28;20056;-37
2021/12/10 08:00:11;;;;;;;24.23;13.50;;;1.90;99.90;;;;;;5012258;28;20407;-37
2021/12/10 08:02:38;;;;;;;22.02;12.88;;;2.00;99.90;;;;;;5007824;28;20086;-37
2021/12/10 08:05:06;;;;;;;24.83;12.52;;;2.00;99.90;;;;;;4992496;28;20061;-37
2021/12/10 08:07:35;;;;;;;20.70;12.27;;;2.00;99.90;;;;;;5013500;28;20077;-37
2021/12/10 08:10:02;;;;;;;24.23;13.27;;;2.00;99.90;;;;;;5012904;28;20057;-37
2021/12/10 08:12:29;;;;;;;20.33;11.98;;;2.00;99.90;;;;;;4995373;28;20050;-39
2021/12/10 08:14:56;;;;;;;21.38;12.02;;;2.00;99.90;;;;;;4996477;28;20089;-41
2021/12/10 08:17:23;;;;;;;19.63;12.10;;;2.00;99.90;;;;;;4996262;28;20054;-38
2021/12/10 08:19:51;;;;;;;21.45;12.27;;;2.00;99.90;;;;;;5014165;28;20053;-37
2021/12/10 08:22:18;;;;;;;25.67;12.30;;;2.00;99.90;;;;;;4996051;28;20424;-37
2021/12/10 08:24:47;;;;;;;20.77;11.30;;;2.00;99.90;;;;;;4996557;28;20133;-38
2021/12/10 08:27:14;;;;;;;23.67;12.35;;;2.00;99.90;;;;;;4996762;28;20054;-37
2021/12/10 08:29:43;;;;;;;19.02;11.60;;;2.10;99.90;;;;;;4996446;28;20053;-37
2021/12/10 08:32:12;;;;;;;22.42;12.15;;;2.10;99.90;;;;;;5013447;28;20073;-37
2021/12/10 08:34:39;;;;;;;21.88;10.68;;;2.10;99.90;;;;;;5014597;28;20500;-37
2021/12/10 08:37:06;;;;;;;20.92;11.40;;;2.10;99.90;;;;;;5013303;28;20046;-37
2021/12/10 08:39:33;;;;;;;22.00;11.02;;;2.20;99.90;;;;;;5014726;28;20064;-37
2021/12/10 08:42:01;;;;;;;22.63;11.68;;;2.20;99.90;;;;;;5013812;28;20073;-37
2021/12/10 08:44:28;;;;;;;19.15;10.63;;;2.20;99.90;;;;;;5013393;28;20128;-39
2021/12/10 08:46:55;;;;;;;26.20;11.75;;;2.20;99.90;;;;;;4996105;28;20085;-41
2021/12/10 08:49:22;;;;;;;19.35;10.57;;;2.20;99.90;;;;;;5013531;28;20046;-39
2021/12/10 08:51:51;;;;;;;19.02;10.32;;;2.30;99.90;;;;;;5013521;28;20100;-40
2021/12/10 08:54:19;;;;;;;19.40;10.77;;;2.30;99.90;;;;;;5012964;28;20588;-39
2021/12/10 08:56:47;;;;;;;21.35;12.65;;;2.30;99.90;;;;;;4995794;28;20050;-42
2021/12/10 08:59:15;;;;;;;16.95;9.30;;;2.30;99.90;;;;;;5011948;28;20050;-41
2021/12/10 09:01:44;;;;;;;15.68;9.65;;;2.40;99.90;;;;;;5011291;28;20057;-45
2021/12/10 09:04:12;;;;;;;19.50;10.18;;;2.40;99.90;;;;;;5010409;28;20129;-37
2021/12/10 09:06:40;;;;;;;19.27;10.13;;;2.50;99.90;;;;;;4993946;28;20054;-36
2021/12/10 09:09:08;;;;;;;15.60;10.10;;;2.50;99.90;;;;;;5004195;28;20050;-37
2021/12/10 09:11:35;;;;;;;20.15;10.48;;;2.50;99.90;;;;;;5002414;28;20054;-36
2021/12/10 09:14:03;;;;;;;18.63;10.32;;;2.50;99.90;;;;;;4980152;28;20049;-36
2021/12/10 09:16:32;;;;;;;17.13;10.18;;;2.60;99.90;;;;;;4993139;28;20046;-36
2021/12/10 09:19:01;;;;;;;18.05;9.77;;;2.60;99.90;;;;;;5011716;28;20057;-40
2021/12/10 09:21:28;;;;;;;20.15;9.90;;;2.60;99.90;;;;;;5012285;28;20052;-36
2021/12/10 09:24:00;;;;;;;14.18;9.43;;;2.70;99.90;;;;;;4996279;28;20085;-37
2021/12/10 09:26:27;;;;;;;17.05;9.65;;;2.70;99.90;;;;;;5009494;28;20057;-38
2021/12/10 09:28:55;;;;;;;16.38;9.25;;;2.70;99.90;;;;;;5013474;28;20443;-39
2021/12/10 09:31:24;;;;;;;16.52;8.85;;;2.80;99.90;;;;;;5012458;28;20104;-36
2021/12/10 09:33:53;;;;;;;16.92;8.82;;;2.90;99.90;;;;;;4994241;28;20292;-36
2021/12/10 09:36:20;;;;;;;16.17;9.02;;;2.90;99.90;;;;;;4993658;28;20132;-37
2021/12/10 09:38:47;;;;;;;12.85;7.88;;;3.00;99.90;;;;;;5013163;28;20054;-37
2021/12/10 09:41:14;;;;;;;14.70;9.20;;;3.00;99.90;;;;;;5011574;28;20089;-37
2021/12/10 09:43:42;;;;;;;17.60;8.60;;;3.10;99.90;;;;;;4995875;28;20058;-38
2021/12/10 09:46:09;;;;;;;11.52;7.70;;;3.20;99.90;;;;;;4995007;28;20116;-42
2021/12/10 09:48:36;;;;;;;20.27;8.50;;;3.20;99.90;;;;;;4995501;28;20425;-38
2021/12/10 09:51:07;;;;;;;15.15;7.90;;;3.30;99.90;;;;;;5012223;28;20078;-37
2021/12/10 09:53:34;;;;;;;14.52;8.38;;;3.40;99.90;;;;;;4980551;28;20099;-38
2021/12/10 09:56:01;;;;;;;19.15;7.85;;;3.50;99.90;;;;;;4994211;28;20058;-38
2021/12/10 09:58:29;;;;;;;19.88;8.15;;;3.50;99.90;;;;;;4994179;28;20404;-37
2021/12/10 10:00:57;;;;;;;14.05;7.57;;;3.50;99.90;;;;;;5012573;28;20053;-37
2021/12/10 10:03:26;;;;;;;14.90;7.60;;;3.60;99.90;;;;;;5012497;28;20077;-37
2021/12/10 10:05:53;;;;;;;14.30;7.88;;;3.60;99.90;;;;;;4995437;28;20065;-37
2021/12/10 10:08:22;;;;;;;16.90;7.88;;;3.70;99.90;;;;;;4994608;28;20094;-39
2021/12/10 10:10:50;;;;;;;13.75;6.95;;;3.70;99.90;;;;;;5005831;28;20096;-38
2021/12/10 10:13:19;;;;;;;13.77;7.20;;;3.80;99.90;;;;;;5011932;28;20379;-40
2021/12/10 10:15:47;;;;;;;13.73;7.00;;;3.80;99.90;;;;;;5012419;28;20401;-37
2021/12/10 10:18:14;;;;;;;17.83;7.93;;;3.90;99.90;;;;;;5011572;28;20060;-37
2021/12/10 10:20:43;;;;;;;11.25;7.40;;;3.90;99.90;;;;;;5011632;28;20070;-37
2021/12/10 10:23:10;;;;;;;13.85;7.30;;;3.90;99.90;;;;;;5012235;28;20049;-38
2021/12/10 10:25:40;;;;;;;15.30;7.20;;;4.00;99.90;;;;;;4994456;28;20093;-38
2021/12/10 10:28:10;;;;;;;12.75;6.75;;;4.00;99.90;;;;;;4995031;28;20309;-37
2021/12/10 10:30:38;;;;;;;14.00;6.95;;;4.10;99.90;;;;;;5012160;28;20125;-37
2021/12/10 10:33:07;;;;;;;12.90;6.25;;;4.10;99.90;;;;;;5012016;28;20112;-39
2021/12/10 10:35:36;;;;;;;14.40;6.65;;;4.20;99.90;;;;;;4995100;28;20136;-38
2021/12/10 10:38:03;;;;;;;11.73;6.13;;;4.20;99.90;;;;;;4993665;28;20042;-38
2021/12/10 10:40:32;;;;;;;14.60;6.47;;;4.20;99.90;;;;;;5012656;28;20525;-38
2021/12/10 10:43:00;;;;;;;14.45;5.82;;;4.30;99.90;;;;;;5012458;28;20054;-37
2021/12/10 10:45:29;;;;;;;13.38;6.13;;;4.30;99.90;;;;;;5011500;28;20579;-38
2021/12/10 10:47:57;;;;;;;12.75;7.07;;;4.30;99.90;;;;;;4994440;28;20494;-38
2021/12/10 10:50:26;;;;;;;15.80;6.10;;;4.40;99.90;;;;;;4992084;28;20065;-39
2021/12/10 10:52:54;;;;;;;14.70;6.10;;;4.40;99.90;;;;;;5011032;28;20054;-37
2021/12/10 10:55:23;;;;;;;13.55;6.50;;;4.40;99.90;;;;;;5010760;28;20054;-38
2021/12/10 10:57:53;;;;;;;13.02;6.32;;;4.50;99.90;;;;;;4992257;28;20113;-38
2021/12/10 11:00:28;;;;;;;11.38;5.63;;;4.50;99.90;;;;;;4984845;28;20508;-38
2021/12/10 11:03:00;;;;;;;11.88;5.95;;;4.60;99.90;;;;;;5010712;28;20116;-41
2021/12/10 11:05:27;;;;;;;16.08;6.40;;;4.70;99.90;;;;;;5011778;28;20057;-38
2021/12/10 11:07:56;;;;;;;18.42;6.28;;;4.60;99.90;;;;;;5010765;28;20517;-38
2021/12/10 11:10:28;;;;;;;14.15;5.88;;;4.60;99.90;;;;;;5010276;28;20045;-38
2021/12/10 11:12:55;;;;;;;13.10;6.05;;;4.70;99.90;;;;;;4993166;28;20498;-38
2021/12/10 11:15:23;;;;;;;10.55;5.38;;;4.70;99.90;;;;;;5011239;28;20054;-38
2021/12/10 11:17:52;;;;;;;8.25;5.20;;;4.70;99.90;;;;;;4993948;28;20134;-38
2021/12/10 11:20:21;;;;;;;12.52;5.75;;;4.80;99.90;;;;;;5010450;28;20159;-38
2021/12/10 11:22:49;;;;;;;9.43;4.95;;;4.80;99.60;;;;;;5010675;28;20405;-38
2021/12/10 11:25:19;;;;;;;15.43;6.45;;;4.90;99.50;;;;;;5011737;28;20103;-38
2021/12/10 11:27:46;;;;;;;10.98;5.95;;;4.80;99.60;;;;;;4994438;28;20120;-38
2021/12/10 11:30:15;;;;;;;13.45;5.07;;;4.90;99.40;;;;;;4994026;28;20050;-38
2021/12/10 11:32:47;;;;;;;12.57;5.32;;;4.90;99.30;;;;;;5011044;28;20093;-40
2021/12/10 11:35:15;;;;;;;10.73;5.47;;;5.00;99.20;;;;;;5011313;28;20108;-38
2021/12/10 11:37:52;;;;;;;10.93;5.40;;;5.00;99.10;;;;;;5010233;28;20123;-40
2021/12/10 11:40:37;;;;;;;9.80;5.18;;;4.90;99.20;;;;;;4993274;28;20052;-38
2021/12/10 11:43:16;;;;;;;16.60;5.03;;;5.00;99.10;;;;;;5009777;28;20073;-38
2021/12/10 11:45:52;;;;;;;8.30;5.25;;;5.00;99.00;;;;;;4993802;28;20522;-38
2021/12/10 11:48:24;;;;;;;13.07;4.68;;;5.00;98.80;;;;;;4992914;28;20054;-42
2021/12/10 11:51:00;;;;;;;13.02;4.57;;;5.00;98.70;;;;;;4992069;28;20084;-40
2021/12/10 11:53:34;;;;;;;15.10;4.80;;;5.00;98.60;;;;;;4975715;28;20110;-38
2021/12/10 11:56:05;;;;;;;11.43;4.50;;;5.00;98.60;;;;;;5003669;28;20042;-38
2021/12/10 11:58:32;;;;;;;12.95;4.50;;;5.10;98.60;;;;;;5010369;28;20085;-38
2021/12/10 12:00:59;;;;;;;14.80;5.13;;;5.10;98.60;;;;;;5011535;28;20116;-38
2021/12/10 12:03:31;;;;;;;12.48;4.38;;;5.10;98.20;;;;;;4993778;28;20756;-38
2021/12/10 12:05:58;;;;;;;9.70;4.57;;;5.10;98.20;;;;;;5004388;28;20132;-41
2021/12/10 12:08:25;;;;;;;10.95;4.22;;;5.10;98.30;;;;;;4987610;28;20065;-41
2021/12/10 12:10:55;;;;;;;12.23;5.13;;;5.20;98.30;;;;;;4985551;28;20513;-37
2021/12/10 12:13:27;;;;;;;11.10;4.60;;;5.20;98.00;;;;;;5010298;28;20054;-40
2021/12/10 12:15:55;;;;;;;17.35;7.03;;;5.20;97.90;;;;;;4980712;28;20145;-37
2021/12/10 12:18:26;;;;;;;16.13;5.47;;;5.20;97.80;;;;;;5005235;28;20092;-37
2021/12/10 12:20:58;;;;;;;7.47;4.00;;;5.20;98.00;;;;;;4987508;28;20057;-37
2021/12/10 12:26:14;;;;;;;8.40;4.45;;;5.20;98.10;;;;;;5012059;28;20516;-38
2021/12/10 12:28:42;;;;;;;9.48;4.13;;;5.20;98.00;;;;;;5012353;28;20516;-38
2021/12/10 12:31:10;;;;;;;11.68;3.95;;;5.20;98.00;;;;;;5010073;28;20108;-38
2021/12/10 12:33:51;;;;;;;9.27;3.97;;;5.10;97.80;;;;;;5011183;28;20050;-38
2021/12/10 12:36:19;;;;;;;15.07;4.43;;;5.10;97.60;;;;;;4992340;28;20089;-41
2021/12/10 12:38:48;;;;;;;256.73;125.32;;;5.10;98.00;;;;;;4992276;28;20501;-38
2021/12/10 12:41:18;;;;;;;11.13;5.03;;;5.10;98.00;;;;;;4981304;28;20405;-39
2021/12/10 12:43:47;;;;;;;10.55;3.90;;;5.10;98.10;;;;;;5015395;28;20049;-39
2021/12/10 12:46:14;;;;;;;15.10;4.47;;;5.10;98.20;;;;;;5014617;28;20502;-38
2021/12/10 12:48:54;;;;;;;7.85;4.00;;;5.10;98.10;;;;;;4997955;28;20052;-38
2021/12/10 12:51:23;;;;;;;8.10;3.97;;;5.10;97.90;;;;;;5014845;28;20081;-39
2021/12/10 12:53:51;;;;;;;10.75;3.90;;;5.10;98.10;;;;;;5014407;28;20510;-38
2021/12/10 12:56:20;;;;;;;11.60;3.90;;;5.10;98.00;;;;;;5014505;28;20053;-39